sensor_id;sensor_type;location;lat;lon;timestamp;P1;durP1;ratioP1;P2;durP2;ratioP2
11927;SDS011;6023;47.070;15.126;2023-04-08T00:01:31;12.97;;;10.53;;
11927;SDS011;6023;47.070;15.126;2023-04-08T00:04:00;14.30;;;10.47;;
11927;SDS011;6023;47.070;15.126;2023-04-08T00:06:30;14.17;;;11.03;;
11927;SDS011;6023;47.070;15.126;2023-04-08T00:08:59;13.40;;;10.30;;
11927;SDS011;6023;47.070;15.126;2023-04-08T00:11:27;15.20;;;11.07;;
11927;SDS011;6023;47.070;15.126;2023-04-08T00:13:56;13.20;;;10.70;;
11927;SDS011;6023;47.070;15.126;2023-04-08T00:16:24;12.70;;;9.90;;
11927;SDS011;6023;47.070;15.126;2023-04-08T00:18:53;14.83;;;10.90;;
11927;SDS011;6023;47.070;15.126;2023-04-08T00:21:22;14.73;;;10.73;;
11927;SDS011;6023;47.070;15.126;2023-04-08T00:23:52;14.17;;;10.53;;
11927;SDS011;6023;47.070;15.126;2023-04-08T00:26:20;13.67;;;10.10;;
11927;SDS011;6023;47.070;15.126;2023-04-08T00:28:49;15.60;;;11.00;;
11927;SDS011;6023;47.070;15.126;2023-04-08T00:31:17;14.53;;;10.73;;
11927;SDS011;6023;47.070;15.126;2023-04-08T00:33:46;15.93;;;10.73;;
11927;SDS011;6023;47.070;15.126;2023-04-08T00:36:15;15.40;;;11.17;;
11927;SDS011;6023;47.070;15.126;2023-04-08T00:38:43;14.37;;;10.50;;
11927;SDS011;6023;47.070;15.126;2023-04-08T00:41:13;13.60;;;10.63;;
11927;SDS011;6023;47.070;15.126;2023-04-08T00:43:42;11.43;;;9.53;;
11927;SDS011;6023;47.070;15.126;2023-04-08T00:46:10;12.87;;;9.50;;
11927;SDS011;6023;47.070;15.126;2023-04-08T00:48:39;12.07;;;9.00;;
11927;SDS011;6023;47.070;15.126;2023-04-08T00:51:07;11.23;;;9.53;;
11927;SDS011;6023;47.070;15.126;2023-04-08T00:53:36;12.70;;;9.80;;
11927;SDS011;6023;47.070;15.126;2023-04-08T00:56:05;13.13;;;10.23;;
11927;SDS011;6023;47.070;15.126;2023-04-08T00:58:35;14.20;;;9.90;;
11927;SDS011;6023;47.070;15.126;2023-04-08T01:01:04;15.37;;;10.70;;
11927;SDS011;6023;47.070;15.126;2023-04-08T01:03:39;13.07;;;10.57;;
11927;SDS011;6023;47.070;15.126;2023-04-08T01:06:14;12.87;;;10.07;;
11927;SDS011;6023;47.070;15.126;2023-04-08T01:08:46;11.63;;;10.00;;
11927;SDS011;6023;47.070;15.126;2023-04-08T01:11:15;13.33;;;10.07;;
11927;SDS011;6023;47.070;15.126;2023-04-08T01:13:47;13.73;;;9.50;;
11927;SDS011;6023;47.070;15.126;2023-04-08T01:16:16;13.03;;;10.00;;
11927;SDS011;6023;47.070;15.126;2023-04-08T01:18:45;11.83;;;9.50;;
11927;SDS011;6023;47.070;15.126;2023-04-08T01:21:15;12.00;;;9.60;;
11927;SDS011;6023;47.070;15.126;2023-04-08T01:23:46;13.93;;;10.37;;
11927;SDS011;6023;47.070;15.126;2023-04-08T01:26:22;11.83;;;9.70;;
11927;SDS011;6023;47.070;15.126;2023-04-08T01:28:52;12.43;;;10.03;;
11927;SDS011;6023;47.070;15.126;2023-04-08T01:31:23;13.97;;;9.97;;
11927;SDS011;6023;47.070;15.126;2023-04-08T01:33:52;12.77;;;9.97;;
11927;SDS011;6023;47.070;15.126;2023-04-08T01:36:21;12.30;;;9.33;;
11927;SDS011;6023;47.070;15.126;2023-04-08T01:38:51;13.17;;;9.97;;
11927;SDS011;6023;47.070;15.126;2023-04-08T01:41:20;12.77;;;10.00;;
11927;SDS011;6023;47.070;15.126;2023-04-08T01:43:49;13.67;;;10.63;;
11927;SDS011;6023;47.070;15.126;2023-04-08T01:46:19;13.70;;;10.20;;
11927;SDS011;6023;47.070;15.126;2023-04-08T01:48:47;11.83;;;9.70;;
11927;SDS011;6023;47.070;15.126;2023-04-08T01:51:17;11.90;;;9.50;;
11927;SDS011;6023;47.070;15.126;2023-04-08T01:53:46;11.10;;;9.10;;
11927;SDS011;6023;47.070;15.126;2023-04-08T01:56:15;12.23;;;8.97;;
11927;SDS011;6023;47.070;15.126;2023-04-08T01:58:47;13.03;;;9.77;;
11927;SDS011;6023;47.070;15.126;2023-04-08T02:01:19;11.03;;;9.07;;
11927;SDS011;6023;47.070;15.126;2023-04-08T02:03:49;12.63;;;9.90;;
11927;SDS011;6023;47.070;15.126;2023-04-08T02:06:18;12.33;;;9.83;;
11927;SDS011;6023;47.070;15.126;2023-04-08T02:08:47;11.50;;;9.20;;
11927;SDS011;6023;47.070;15.126;2023-04-08T02:11:16;11.40;;;9.53;;
11927;SDS011;6023;47.070;15.126;2023-04-08T02:13:46;11.13;;;9.20;;
11927;SDS011;6023;47.070;15.126;2023-04-08T02:16:15;11.80;;;9.20;;
11927;SDS011;6023;47.070;15.126;2023-04-08T02:18:48;11.37;;;9.10;;
11927;SDS011;6023;47.070;15.126;2023-04-08T02:21:25;10.67;;;8.50;;
11927;SDS011;6023;47.070;15.126;2023-04-08T02:23:58;10.50;;;8.83;;
11927;SDS011;6023;47.070;15.126;2023-04-08T02:26:31;10.63;;;8.70;;
11927;SDS011;6023;47.070;15.126;2023-04-08T02:29:02;10.57;;;8.90;;
11927;SDS011;6023;47.070;15.126;2023-04-08T02:31:31;12.80;;;9.53;;
11927;SDS011;6023;47.070;15.126;2023-04-08T02:34:01;12.07;;;9.50;;
11927;SDS011;6023;47.070;15.126;2023-04-08T02:36:29;11.13;;;9.17;;
11927;SDS011;6023;47.070;15.126;2023-04-08T02:38:59;11.13;;;9.43;;
11927;SDS011;6023;47.070;15.126;2023-04-08T02:41:27;11.43;;;9.30;;
11927;SDS011;6023;47.070;15.126;2023-04-08T02:43:56;11.50;;;9.17;;
11927;SDS011;6023;47.070;15.126;2023-04-08T02:46:26;10.80;;;8.80;;
11927;SDS011;6023;47.070;15.126;2023-04-08T02:48:54;10.53;;;8.60;;
11927;SDS011;6023;47.070;15.126;2023-04-08T02:51:23;11.17;;;8.93;;
11927;SDS011;6023;47.070;15.126;2023-04-08T02:53:51;11.60;;;9.20;;
11927;SDS011;6023;47.070;15.126;2023-04-08T02:56:21;11.53;;;9.23;;
11927;SDS011;6023;47.070;15.126;2023-04-08T02:58:49;10.63;;;8.43;;
11927;SDS011;6023;47.070;15.126;2023-04-08T03:01:18;11.97;;;8.93;;
11927;SDS011;6023;47.070;15.126;2023-04-08T03:03:47;10.90;;;9.33;;
11927;SDS011;6023;47.070;15.126;2023-04-08T03:06:16;12.90;;;9.00;;
11927;SDS011;6023;47.070;15.126;2023-04-08T03:08:45;10.73;;;9.23;;
11927;SDS011;6023;47.070;15.126;2023-04-08T03:11:13;12.23;;;9.43;;
11927;SDS011;6023;47.070;15.126;2023-04-08T03:13:42;11.10;;;9.33;;
11927;SDS011;6023;47.070;15.126;2023-04-08T03:16:12;11.23;;;9.20;;
11927;SDS011;6023;47.070;15.126;2023-04-08T03:18:40;11.93;;;9.90;;
11927;SDS011;6023;47.070;15.126;2023-04-08T03:21:10;12.87;;;9.70;;
11927;SDS011;6023;47.070;15.126;2023-04-08T03:23:39;11.23;;;9.27;;
11927;SDS011;6023;47.070;15.126;2023-04-08T03:26:07;12.93;;;10.10;;
11927;SDS011;6023;47.070;15.126;2023-04-08T03:28:36;11.90;;;10.20;;
11927;SDS011;6023;47.070;15.126;2023-04-08T03:31:04;12.03;;;9.90;;
11927;SDS011;6023;47.070;15.126;2023-04-08T03:33:33;13.87;;;10.10;;
11927;SDS011;6023;47.070;15.126;2023-04-08T03:36:01;10.97;;;9.20;;
11927;SDS011;6023;47.070;15.126;2023-04-08T03:38:31;11.57;;;9.03;;
11927;SDS011;6023;47.070;15.126;2023-04-08T03:41:00;11.83;;;9.03;;
11927;SDS011;6023;47.070;15.126;2023-04-08T03:43:29;11.13;;;9.30;;
11927;SDS011;6023;47.070;15.126;2023-04-08T03:45:58;12.93;;;10.07;;
11927;SDS011;6023;47.070;15.126;2023-04-08T03:48:26;12.30;;;9.93;;
11927;SDS011;6023;47.070;15.126;2023-04-08T03:50:55;11.87;;;9.23;;
11927;SDS011;6023;47.070;15.126;2023-04-08T03:53:23;11.13;;;9.33;;
11927;SDS011;6023;47.070;15.126;2023-04-08T03:55:55;12.97;;;10.33;;
11927;SDS011;6023;47.070;15.126;2023-04-08T03:58:23;11.27;;;9.70;;
11927;SDS011;6023;47.070;15.126;2023-04-08T04:00:52;10.60;;;9.23;;
11927;SDS011;6023;47.070;15.126;2023-04-08T04:03:21;12.80;;;9.87;;
11927;SDS011;6023;47.070;15.126;2023-04-08T04:05:49;10.13;;;9.03;;
11927;SDS011;6023;47.070;15.126;2023-04-08T04:08:18;11.90;;;9.77;;
11927;SDS011;6023;47.070;15.126;2023-04-08T04:10:46;12.97;;;9.73;;
11927;SDS011;6023;47.070;15.126;2023-04-08T04:13:16;10.37;;;8.93;;
11927;SDS011;6023;47.070;15.126;2023-04-08T04:15:45;10.67;;;8.97;;
11927;SDS011;6023;47.070;15.126;2023-04-08T04:18:13;11.10;;;9.30;;
11927;SDS011;6023;47.070;15.126;2023-04-08T04:20:42;12.87;;;9.40;;
11927;SDS011;6023;47.070;15.126;2023-04-08T04:23:10;11.40;;;9.33;;
11927;SDS011;6023;47.070;15.126;2023-04-08T04:25:39;10.83;;;9.50;;
11927;SDS011;6023;47.070;15.126;2023-04-08T04:28:08;11.33;;;8.80;;
11927;SDS011;6023;47.070;15.126;2023-04-08T04:30:38;11.20;;;8.90;;
11927;SDS011;6023;47.070;15.126;2023-04-08T04:33:07;11.33;;;9.33;;
11927;SDS011;6023;47.070;15.126;2023-04-08T04:35:35;12.37;;;10.27;;
11927;SDS011;6023;47.070;15.126;2023-04-08T04:38:04;12.50;;;10.33;;
11927;SDS011;6023;47.070;15.126;2023-04-08T04:40:36;12.97;;;11.07;;
11927;SDS011;6023;47.070;15.126;2023-04-08T04:43:04;12.80;;;11.13;;
11927;SDS011;6023;47.070;15.126;2023-04-08T04:45:33;12.23;;;9.90;;
11927;SDS011;6023;47.070;15.126;2023-04-08T04:48:03;13.07;;;10.50;;
11927;SDS011;6023;47.070;15.126;2023-04-08T04:50:32;13.00;;;10.30;;
11927;SDS011;6023;47.070;15.126;2023-04-08T04:53:00;11.67;;;10.47;;
11927;SDS011;6023;47.070;15.126;2023-04-08T04:55:29;12.43;;;10.63;;
11927;SDS011;6023;47.070;15.126;2023-04-08T04:57:57;12.67;;;9.77;;
11927;SDS011;6023;47.070;15.126;2023-04-08T05:00:26;12.13;;;10.50;;
11927;SDS011;6023;47.070;15.126;2023-04-08T05:02:54;11.70;;;9.80;;
11927;SDS011;6023;47.070;15.126;2023-04-08T05:05:24;13.20;;;10.17;;
11927;SDS011;6023;47.070;15.126;2023-04-08T05:07:53;11.47;;;9.27;;
11927;SDS011;6023;47.070;15.126;2023-04-08T05:10:21;11.93;;;9.87;;
11927;SDS011;6023;47.070;15.126;2023-04-08T05:12:50;11.47;;;9.80;;
11927;SDS011;6023;47.070;15.126;2023-04-08T05:15:18;23.00;;;18.77;;
11927;SDS011;6023;47.070;15.126;2023-04-08T05:17:47;22.80;;;18.77;;
11927;SDS011;6023;47.070;15.126;2023-04-08T05:20:15;19.27;;;16.47;;
11927;SDS011;6023;47.070;15.126;2023-04-08T05:22:45;13.33;;;11.63;;
11927;SDS011;6023;47.070;15.126;2023-04-08T05:25:14;12.30;;;10.57;;
11927;SDS011;6023;47.070;15.126;2023-04-08T05:27:42;10.90;;;9.37;;
11927;SDS011;6023;47.070;15.126;2023-04-08T05:30:12;12.30;;;9.77;;
11927;SDS011;6023;47.070;15.126;2023-04-08T05:32:41;12.30;;;10.03;;
11927;SDS011;6023;47.070;15.126;2023-04-08T05:35:10;11.40;;;9.63;;
11927;SDS011;6023;47.070;15.126;2023-04-08T05:37:38;10.93;;;9.53;;
11927;SDS011;6023;47.070;15.126;2023-04-08T05:40:09;13.97;;;10.27;;
11927;SDS011;6023;47.070;15.126;2023-04-08T05:42:38;11.70;;;9.77;;
11927;SDS011;6023;47.070;15.126;2023-04-08T05:45:08;12.00;;;10.00;;
11927;SDS011;6023;47.070;15.126;2023-04-08T05:47:37;12.10;;;10.87;;
11927;SDS011;6023;47.070;15.126;2023-04-08T05:50:06;13.20;;;11.07;;
11927;SDS011;6023;47.070;15.126;2023-04-08T05:52:35;22.70;;;18.90;;
11927;SDS011;6023;47.070;15.126;2023-04-08T05:55:04;18.30;;;15.33;;
11927;SDS011;6023;47.070;15.126;2023-04-08T05:57:34;14.10;;;12.20;;
11927;SDS011;6023;47.070;15.126;2023-04-08T06:00:03;14.57;;;11.13;;
11927;SDS011;6023;47.070;15.126;2023-04-08T06:02:34;12.47;;;10.73;;
11927;SDS011;6023;47.070;15.126;2023-04-08T06:05:03;13.07;;;11.67;;
11927;SDS011;6023;47.070;15.126;2023-04-08T06:07:32;14.67;;;12.83;;
11927;SDS011;6023;47.070;15.126;2023-04-08T06:10:01;15.17;;;13.43;;
11927;SDS011;6023;47.070;15.126;2023-04-08T06:12:30;15.57;;;12.83;;
11927;SDS011;6023;47.070;15.126;2023-04-08T06:15:04;14.53;;;12.60;;
11927;SDS011;6023;47.070;15.126;2023-04-08T06:17:34;14.10;;;12.60;;
11927;SDS011;6023;47.070;15.126;2023-04-08T06:20:03;21.67;;;18.30;;
11927;SDS011;6023;47.070;15.126;2023-04-08T06:22:34;40.20;;;34.73;;
11927;SDS011;6023;47.070;15.126;2023-04-08T06:25:03;25.67;;;21.77;;
11927;SDS011;6023;47.070;15.126;2023-04-08T06:27:33;19.63;;;16.77;;
11927;SDS011;6023;47.070;15.126;2023-04-08T06:30:03;20.37;;;16.57;;
11927;SDS011;6023;47.070;15.126;2023-04-08T06:32:32;21.87;;;17.90;;
11927;SDS011;6023;47.070;15.126;2023-04-08T06:35:00;20.67;;;17.80;;
11927;SDS011;6023;47.070;15.126;2023-04-08T06:37:29;22.70;;;19.90;;
11927;SDS011;6023;47.070;15.126;2023-04-08T06:39:57;24.70;;;20.80;;
11927;SDS011;6023;47.070;15.126;2023-04-08T06:42:26;23.37;;;20.33;;
11927;SDS011;6023;47.070;15.126;2023-04-08T06:44:54;23.40;;;20.23;;
11927;SDS011;6023;47.070;15.126;2023-04-08T06:47:25;25.27;;;21.07;;
11927;SDS011;6023;47.070;15.126;2023-04-08T06:49:53;23.37;;;20.30;;
11927;SDS011;6023;47.070;15.126;2023-04-08T06:52:22;21.30;;;18.80;;
11927;SDS011;6023;47.070;15.126;2023-04-08T06:54:50;21.93;;;18.90;;
11927;SDS011;6023;47.070;15.126;2023-04-08T06:57:19;24.73;;;19.27;;
11927;SDS011;6023;47.070;15.126;2023-04-08T06:59:47;29.87;;;25.07;;
11927;SDS011;6023;47.070;15.126;2023-04-08T07:02:15;30.53;;;24.10;;
11927;SDS011;6023;47.070;15.126;2023-04-08T07:04:45;45.60;;;34.20;;
11927;SDS011;6023;47.070;15.126;2023-04-08T07:07:14;49.83;;;38.57;;
11927;SDS011;6023;47.070;15.126;2023-04-08T07:09:42;35.10;;;28.80;;
11927;SDS011;6023;47.070;15.126;2023-04-08T07:12:12;52.00;;;38.73;;
11927;SDS011;6023;47.070;15.126;2023-04-08T07:14:41;53.30;;;41.60;;
11927;SDS011;6023;47.070;15.126;2023-04-08T07:17:09;45.30;;;35.23;;
11927;SDS011;6023;47.070;15.126;2023-04-08T07:19:38;28.20;;;22.43;;
11927;SDS011;6023;47.070;15.126;2023-04-08T07:22:08;24.70;;;20.20;;
11927;SDS011;6023;47.070;15.126;2023-04-08T07:24:36;31.57;;;27.27;;
11927;SDS011;6023;47.070;15.126;2023-04-08T07:27:04;40.70;;;34.77;;
11927;SDS011;6023;47.070;15.126;2023-04-08T07:29:33;26.77;;;23.33;;
11927;SDS011;6023;47.070;15.126;2023-04-08T07:32:01;21.40;;;18.47;;
11927;SDS011;6023;47.070;15.126;2023-04-08T07:34:30;24.10;;;20.20;;
11927;SDS011;6023;47.070;15.126;2023-04-08T07:36:59;29.40;;;25.77;;
11927;SDS011;6023;47.070;15.126;2023-04-08T07:39:28;24.67;;;22.03;;
11927;SDS011;6023;47.070;15.126;2023-04-08T07:41:57;22.23;;;19.37;;
11927;SDS011;6023;47.070;15.126;2023-04-08T07:44:25;21.23;;;18.40;;
11927;SDS011;6023;47.070;15.126;2023-04-08T07:46:54;22.80;;;20.10;;
11927;SDS011;6023;47.070;15.126;2023-04-08T07:49:22;21.83;;;18.67;;
11927;SDS011;6023;47.070;15.126;2023-04-08T07:51:51;21.70;;;19.33;;
11927;SDS011;6023;47.070;15.126;2023-04-08T07:54:20;26.13;;;22.70;;
11927;SDS011;6023;47.070;15.126;2023-04-08T07:56:49;23.57;;;20.00;;
11927;SDS011;6023;47.070;15.126;2023-04-08T07:59:18;23.00;;;20.00;;
11927;SDS011;6023;47.070;15.126;2023-04-08T08:01:46;21.33;;;18.20;;
11927;SDS011;6023;47.070;15.126;2023-04-08T08:04:15;22.37;;;19.83;;
11927;SDS011;6023;47.070;15.126;2023-04-08T08:06:44;23.27;;;20.77;;
11927;SDS011;6023;47.070;15.126;2023-04-08T08:09:13;24.20;;;21.60;;
11927;SDS011;6023;47.070;15.126;2023-04-08T08:11:42;22.87;;;20.40;;
11927;SDS011;6023;47.070;15.126;2023-04-08T08:14:12;21.90;;;18.97;;
11927;SDS011;6023;47.070;15.126;2023-04-08T08:16:41;20.37;;;18.17;;
11927;SDS011;6023;47.070;15.126;2023-04-08T08:19:10;22.57;;;20.13;;
11927;SDS011;6023;47.070;15.126;2023-04-08T08:21:39;21.83;;;19.53;;
11927;SDS011;6023;47.070;15.126;2023-04-08T08:24:08;33.73;;;28.57;;
11927;SDS011;6023;47.070;15.126;2023-04-08T08:26:37;35.97;;;28.53;;
11927;SDS011;6023;47.070;15.126;2023-04-08T08:29:06;25.93;;;21.77;;
11927;SDS011;6023;47.070;15.126;2023-04-08T08:31:36;24.80;;;21.13;;
11927;SDS011;6023;47.070;15.126;2023-04-08T08:34:04;21.83;;;19.53;;
11927;SDS011;6023;47.070;15.126;2023-04-08T08:36:33;21.43;;;19.10;;
11927;SDS011;6023;47.070;15.126;2023-04-08T08:39:02;21.60;;;19.07;;
11927;SDS011;6023;47.070;15.126;2023-04-08T08:41:32;21.37;;;18.40;;
11927;SDS011;6023;47.070;15.126;2023-04-08T08:44:04;21.50;;;19.17;;
11927;SDS011;6023;47.070;15.126;2023-04-08T08:46:33;20.47;;;18.13;;
11927;SDS011;6023;47.070;15.126;2023-04-08T08:49:03;19.87;;;17.77;;
11927;SDS011;6023;47.070;15.126;2023-04-08T08:51:31;21.13;;;18.83;;
11927;SDS011;6023;47.070;15.126;2023-04-08T08:54:01;21.27;;;19.07;;
11927;SDS011;6023;47.070;15.126;2023-04-08T08:56:31;21.40;;;19.10;;
11927;SDS011;6023;47.070;15.126;2023-04-08T08:59:00;21.77;;;19.47;;
11927;SDS011;6023;47.070;15.126;2023-04-08T09:01:29;20.53;;;18.23;;
11927;SDS011;6023;47.070;15.126;2023-04-08T09:04:07;19.93;;;17.83;;
11927;SDS011;6023;47.070;15.126;2023-04-08T09:06:39;21.97;;;19.10;;
11927;SDS011;6023;47.070;15.126;2023-04-08T09:09:07;21.17;;;18.87;;
11927;SDS011;6023;47.070;15.126;2023-04-08T09:11:39;42.67;;;37.07;;
11927;SDS011;6023;47.070;15.126;2023-04-08T09:14:17;25.90;;;23.10;;
11927;SDS011;6023;47.070;15.126;2023-04-08T09:16:47;23.93;;;20.63;;
11927;SDS011;6023;47.070;15.126;2023-04-08T09:19:17;22.87;;;20.47;;
11927;SDS011;6023;47.070;15.126;2023-04-08T09:21:52;20.33;;;18.23;;
11927;SDS011;6023;47.070;15.126;2023-04-08T09:24:32;21.23;;;18.93;;
11927;SDS011;6023;47.070;15.126;2023-04-08T09:27:00;20.20;;;17.77;;
11927;SDS011;6023;47.070;15.126;2023-04-08T09:29:29;21.50;;;19.30;;
11927;SDS011;6023;47.070;15.126;2023-04-08T09:32:02;23.40;;;20.20;;
11927;SDS011;6023;47.070;15.126;2023-04-08T09:34:32;20.73;;;18.53;;
11927;SDS011;6023;47.070;15.126;2023-04-08T09:37:00;21.07;;;18.87;;
11927;SDS011;6023;47.070;15.126;2023-04-08T09:39:29;20.60;;;18.50;;
11927;SDS011;6023;47.070;15.126;2023-04-08T09:41:58;23.90;;;21.40;;
11927;SDS011;6023;47.070;15.126;2023-04-08T09:44:28;23.67;;;21.27;;
11927;SDS011;6023;47.070;15.126;2023-04-08T09:47:00;20.93;;;18.83;;
11927;SDS011;6023;47.070;15.126;2023-04-08T09:49:38;20.97;;;18.77;;
11927;SDS011;6023;47.070;15.126;2023-04-08T09:52:11;22.93;;;20.50;;
11927;SDS011;6023;47.070;15.126;2023-04-08T09:54:46;22.87;;;20.17;;
11927;SDS011;6023;47.070;15.126;2023-04-08T09:57:20;20.20;;;18.00;;
11927;SDS011;6023;47.070;15.126;2023-04-08T09:59:55;22.23;;;19.70;;
11927;SDS011;6023;47.070;15.126;2023-04-08T10:02:29;20.80;;;18.60;;
11927;SDS011;6023;47.070;15.126;2023-04-08T10:05:00;21.47;;;19.33;;
11927;SDS011;6023;47.070;15.126;2023-04-08T10:07:34;19.67;;;17.67;;
11927;SDS011;6023;47.070;15.126;2023-04-08T10:10:03;19.87;;;17.57;;
11927;SDS011;6023;47.070;15.126;2023-04-08T10:12:32;20.00;;;17.93;;
11927;SDS011;6023;47.070;15.126;2023-04-08T10:17:52;20.73;;;18.53;;
11927;SDS011;6023;47.070;15.126;2023-04-08T10:23:09;21.63;;;19.33;;
11927;SDS011;6023;47.070;15.126;2023-04-08T10:25:40;21.93;;;19.73;;
11927;SDS011;6023;47.070;15.126;2023-04-08T10:28:23;21.40;;;19.20;;
11927;SDS011;6023;47.070;15.126;2023-04-08T10:30:53;20.77;;;18.50;;
11927;SDS011;6023;47.070;15.126;2023-04-08T10:33:23;20.10;;;18.00;;
11927;SDS011;6023;47.070;15.126;2023-04-08T10:36:09;21.70;;;19.37;;
11927;SDS011;6023;47.070;15.126;2023-04-08T10:38:41;21.83;;;19.63;;
11927;SDS011;6023;47.070;15.126;2023-04-08T10:41:10;22.40;;;20.00;;
11927;SDS011;6023;47.070;15.126;2023-04-08T10:43:40;36.43;;;31.43;;
11927;SDS011;6023;47.070;15.126;2023-04-08T10:46:09;23.17;;;20.67;;
11927;SDS011;6023;47.070;15.126;2023-04-08T10:48:38;21.17;;;18.97;;
11927;SDS011;6023;47.070;15.126;2023-04-08T10:51:08;20.37;;;18.27;;
11927;SDS011;6023;47.070;15.126;2023-04-08T10:53:37;21.60;;;19.40;;
11927;SDS011;6023;47.070;15.126;2023-04-08T10:56:06;22.27;;;19.93;;
11927;SDS011;6023;47.070;15.126;2023-04-08T10:58:46;23.73;;;21.33;;
11927;SDS011;6023;47.070;15.126;2023-04-08T11:01:15;24.20;;;21.60;;
11927;SDS011;6023;47.070;15.126;2023-04-08T11:03:44;25.93;;;23.03;;
11927;SDS011;6023;47.070;15.126;2023-04-08T11:06:14;21.80;;;19.60;;
11927;SDS011;6023;47.070;15.126;2023-04-08T11:08:43;22.27;;;20.07;;
11927;SDS011;6023;47.070;15.126;2023-04-08T11:11:11;21.73;;;19.53;;
11927;SDS011;6023;47.070;15.126;2023-04-08T11:13:41;21.30;;;19.20;;
11927;SDS011;6023;47.070;15.126;2023-04-08T11:16:19;20.47;;;18.40;;
11927;SDS011;6023;47.070;15.126;2023-04-08T11:18:49;22.10;;;19.77;;
11927;SDS011;6023;47.070;15.126;2023-04-08T11:21:19;19.43;;;17.47;;
11927;SDS011;6023;47.070;15.126;2023-04-08T11:23:50;24.47;;;21.93;;
11927;SDS011;6023;47.070;15.126;2023-04-08T11:26:20;25.13;;;22.53;;
11927;SDS011;6023;47.070;15.126;2023-04-08T11:28:48;28.53;;;25.53;;
11927;SDS011;6023;47.070;15.126;2023-04-08T11:31:18;22.73;;;20.43;;
11927;SDS011;6023;47.070;15.126;2023-04-08T11:33:51;21.63;;;19.43;;
11927;SDS011;6023;47.070;15.126;2023-04-08T11:36:22;23.87;;;21.47;;
11927;SDS011;6023;47.070;15.126;2023-04-08T11:38:52;30.20;;;27.00;;
11927;SDS011;6023;47.070;15.126;2023-04-08T11:41:21;21.80;;;19.50;;
11927;SDS011;6023;47.070;15.126;2023-04-08T11:43:50;23.53;;;21.03;;
11927;SDS011;6023;47.070;15.126;2023-04-08T11:46:19;23.93;;;21.43;;
11927;SDS011;6023;47.070;15.126;2023-04-08T11:49:02;38.33;;;34.27;;
11927;SDS011;6023;47.070;15.126;2023-04-08T11:51:33;27.07;;;24.17;;
11927;SDS011;6023;47.070;15.126;2023-04-08T11:54:03;25.70;;;22.53;;
11927;SDS011;6023;47.070;15.126;2023-04-08T11:56:43;20.40;;;18.37;;
11927;SDS011;6023;47.070;15.126;2023-04-08T11:59:12;20.47;;;18.30;;
11927;SDS011;6023;47.070;15.126;2023-04-08T12:01:41;21.60;;;19.40;;
11927;SDS011;6023;47.070;15.126;2023-04-08T12:04:10;23.37;;;20.90;;
11927;SDS011;6023;47.070;15.126;2023-04-08T12:06:40;21.90;;;19.60;;
11927;SDS011;6023;47.070;15.126;2023-04-08T12:09:09;20.60;;;18.47;;
11927;SDS011;6023;47.070;15.126;2023-04-08T12:11:38;45.33;;;38.53;;
11927;SDS011;6023;47.070;15.126;2023-04-08T12:14:06;33.20;;;29.70;;
11927;SDS011;6023;47.070;15.126;2023-04-08T12:16:35;28.60;;;25.63;;
11927;SDS011;6023;47.070;15.126;2023-04-08T12:19:04;21.00;;;18.90;;
11927;SDS011;6023;47.070;15.126;2023-04-08T12:21:32;20.80;;;18.70;;
11927;SDS011;6023;47.070;15.126;2023-04-08T12:24:03;22.73;;;20.33;;
11927;SDS011;6023;47.070;15.126;2023-04-08T12:26:31;23.40;;;21.10;;
11927;SDS011;6023;47.070;15.126;2023-04-08T12:29:00;20.33;;;18.23;;
11927;SDS011;6023;47.070;15.126;2023-04-08T12:31:29;19.03;;;17.13;;
11927;SDS011;6023;47.070;15.126;2023-04-08T12:33:57;19.07;;;17.17;;
11927;SDS011;6023;47.070;15.126;2023-04-08T12:36:26;19.57;;;17.67;;
11927;SDS011;6023;47.070;15.126;2023-04-08T12:38:55;21.00;;;18.80;;
11927;SDS011;6023;47.070;15.126;2023-04-08T12:41:24;29.37;;;26.27;;
11927;SDS011;6023;47.070;15.126;2023-04-08T12:43:53;21.43;;;19.23;;
11927;SDS011;6023;47.070;15.126;2023-04-08T12:46:22;23.73;;;21.33;;
11927;SDS011;6023;47.070;15.126;2023-04-08T12:48:50;21.33;;;19.23;;
11927;SDS011;6023;47.070;15.126;2023-04-08T12:51:30;21.30;;;19.07;;
11927;SDS011;6023;47.070;15.126;2023-04-08T12:53:59;18.57;;;16.67;;
11927;SDS011;6023;47.070;15.126;2023-04-08T12:56:30;21.37;;;18.73;;
11927;SDS011;6023;47.070;15.126;2023-04-08T12:58:59;23.30;;;20.87;;
11927;SDS011;6023;47.070;15.126;2023-04-08T13:01:28;18.90;;;17.00;;
11927;SDS011;6023;47.070;15.126;2023-04-08T13:03:57;20.13;;;18.07;;
11927;SDS011;6023;47.070;15.126;2023-04-08T13:06:26;19.57;;;17.47;;
11927;SDS011;6023;47.070;15.126;2023-04-08T13:08:54;18.47;;;16.67;;
11927;SDS011;6023;47.070;15.126;2023-04-08T13:11:23;19.67;;;17.57;;
11927;SDS011;6023;47.070;15.126;2023-04-08T13:13:53;18.13;;;16.30;;
11927;SDS011;6023;47.070;15.126;2023-04-08T13:16:22;18.97;;;17.07;;
11927;SDS011;6023;47.070;15.126;2023-04-08T13:18:50;18.30;;;16.50;;
11927;SDS011;6023;47.070;15.126;2023-04-08T13:21:19;19.70;;;17.80;;
11927;SDS011;6023;47.070;15.126;2023-04-08T13:23:47;19.37;;;17.37;;
11927;SDS011;6023;47.070;15.126;2023-04-08T13:26:16;18.43;;;16.57;;
11927;SDS011;6023;47.070;15.126;2023-04-08T13:28:44;17.77;;;16.07;;
11927;SDS011;6023;47.070;15.126;2023-04-08T13:31:24;19.17;;;17.27;;
11927;SDS011;6023;47.070;15.126;2023-04-08T13:33:52;18.20;;;16.40;;
11927;SDS011;6023;47.070;15.126;2023-04-08T13:36:24;18.33;;;16.40;;
11927;SDS011;6023;47.070;15.126;2023-04-08T13:38:54;17.63;;;15.83;;
11927;SDS011;6023;47.070;15.126;2023-04-08T13:41:23;19.00;;;17.10;;
11927;SDS011;6023;47.070;15.126;2023-04-08T13:43:53;19.67;;;17.77;;
11927;SDS011;6023;47.070;15.126;2023-04-08T13:46:23;19.13;;;17.20;;
11927;SDS011;6023;47.070;15.126;2023-04-08T13:48:52;18.90;;;17.07;;
11927;SDS011;6023;47.070;15.126;2023-04-08T13:51:20;20.17;;;18.17;;
11927;SDS011;6023;47.070;15.126;2023-04-08T13:53:49;20.00;;;17.97;;
11927;SDS011;6023;47.070;15.126;2023-04-08T13:56:17;19.40;;;17.37;;
11927;SDS011;6023;47.070;15.126;2023-04-08T13:58:46;19.90;;;17.87;;
11927;SDS011;6023;47.070;15.126;2023-04-08T14:01:24;20.27;;;18.17;;
11927;SDS011;6023;47.070;15.126;2023-04-08T14:03:52;34.63;;;30.70;;
11927;SDS011;6023;47.070;15.126;2023-04-08T14:06:21;23.97;;;20.90;;
11927;SDS011;6023;47.070;15.126;2023-04-08T14:08:49;20.60;;;18.50;;
11927;SDS011;6023;47.070;15.126;2023-04-08T14:11:18;19.83;;;17.83;;
11927;SDS011;6023;47.070;15.126;2023-04-08T14:13:47;18.33;;;16.20;;
11927;SDS011;6023;47.070;15.126;2023-04-08T14:16:15;20.17;;;18.10;;
11927;SDS011;6023;47.070;15.126;2023-04-08T14:18:45;17.23;;;15.53;;
11927;SDS011;6023;47.070;15.126;2023-04-08T14:21:14;18.57;;;16.67;;
11927;SDS011;6023;47.070;15.126;2023-04-08T14:23:43;18.80;;;16.90;;
11927;SDS011;6023;47.070;15.126;2023-04-08T14:26:12;43.87;;;33.83;;
11927;SDS011;6023;47.070;15.126;2023-04-08T14:28:41;18.63;;;16.83;;
11927;SDS011;6023;47.070;15.126;2023-04-08T14:31:09;18.70;;;16.70;;
11927;SDS011;6023;47.070;15.126;2023-04-08T14:33:38;18.60;;;16.70;;
11927;SDS011;6023;47.070;15.126;2023-04-08T14:36:09;18.97;;;17.00;;
11927;SDS011;6023;47.070;15.126;2023-04-08T14:38:39;19.40;;;17.43;;
11927;SDS011;6023;47.070;15.126;2023-04-08T14:41:08;17.63;;;15.83;;
11927;SDS011;6023;47.070;15.126;2023-04-08T14:43:36;18.90;;;17.00;;
11927;SDS011;6023;47.070;15.126;2023-04-08T14:46:05;18.60;;;16.80;;